Main page
METAR-TAF:

METAR-TAF

Airports :

Ardabil Airport

Ardabil, Iran

latitude: 38-19-35N, longitude: 048-25-28E, elevation: 1315 m

Current weather observation

The report was made 1 hour and 7 minutes ago, at 22:51 UTC
Wind 6 kt from the South
Temperature 10°C
Humidity 76%
Pressure 1018 hPa
Visibility 10 km or more
Few clouds at a height of 8000 ft
Broken clouds at a height of 20000 ft

METAR: OITL 222251Z 18006KT 9999 FEW080 BKN200 10/06 Q1018

Time: 04:28 (23:58 UTC)


TAF: missing

Weather observations and forecasts of more than 4000 airports (METAR and TAF reports).

The available stations are represented by yellow and red dots on the map.

Hover mouse over dot to see the name of the station.

Then click to see weather observations and forecasts.

To change the map : click on the green buttons with a black cross to zoom in, on the green button with a dash to zoom out, or on the green arrows for adjacent maps.


METAR-TAF: